createdAt,value
2023-02-07T00:02:48.129Z,2.48
2023-02-07T00:07:52.027Z,2.46
2023-02-07T00:12:56.421Z,2.43
2023-02-07T00:18:01.673Z,2.41
2023-02-07T00:23:05.499Z,2.32
2023-02-07T00:28:09.393Z,2.32
2023-02-07T00:33:14.630Z,2.25
2023-02-07T00:38:19.772Z,2.16
2023-02-07T00:43:29.748Z,2.10
2023-02-07T00:48:35.624Z,2.09
2023-02-07T00:53:39.805Z,2.03
2023-02-07T00:58:43.681Z,1.98
2023-02-07T01:03:49.396Z,1.93
2023-02-07T01:08:57.768Z,1.89
2023-02-07T01:14:02.029Z,1.81
2023-02-07T01:19:10.111Z,1.89
2023-02-07T01:24:13.704Z,1.90
2023-02-07T01:29:17.447Z,1.90
2023-02-07T01:34:22.626Z,1.84
2023-02-07T01:39:26.450Z,1.81
2023-02-07T01:45:01.038Z,1.80
2023-02-07T01:50:07.110Z,1.78
2023-02-07T01:55:17.674Z,1.71
2023-02-07T02:00:22.227Z,1.62
2023-02-07T02:05:28.758Z,1.55
2023-02-07T02:10:49.042Z,1.52
2023-02-07T02:16:03.214Z,1.47
2023-02-07T02:21:41.474Z,1.40
2023-02-07T02:26:57.298Z,1.39
2023-02-07T02:32:52.349Z,1.35
2023-02-07T02:38:03.892Z,1.38
2023-02-07T02:43:14.984Z,1.41
2023-02-07T02:48:20.743Z,1.40
2023-02-07T02:53:26.061Z,1.41
2023-02-07T02:58:40.549Z,1.42
2023-02-07T03:04:06.431Z,1.39
2023-02-07T03:09:21.811Z,1.37
2023-02-07T03:14:34.807Z,1.38
2023-02-07T03:19:44.696Z,1.38
2023-02-07T03:24:53.741Z,1.38
2023-02-07T03:30:03.058Z,1.43
2023-02-07T03:35:11.112Z,1.52
2023-02-07T03:40:17.072Z,1.58
2023-02-07T03:45:22.834Z,1.62
2023-02-07T03:50:26.732Z,1.65
2023-02-07T03:55:32.950Z,1.56
2023-02-07T04:00:37.687Z,1.49
2023-02-07T04:05:41.495Z,1.44
2023-02-07T04:10:46.662Z,1.47
2023-02-07T04:15:50.477Z,1.51
2023-02-07T04:21:01.652Z,1.52
2023-02-07T04:26:06.875Z,1.44
2023-02-07T04:31:10.697Z,1.46
2023-02-07T04:36:15.196Z,1.42
2023-02-07T04:41:20.333Z,1.30
2023-02-07T04:46:24.118Z,1.28
2023-02-07T04:51:27.912Z,1.26
2023-02-07T04:56:35.342Z,1.22
2023-02-07T05:01:42.210Z,1.10
2023-02-07T05:06:46.053Z,0.99
2023-02-07T05:11:51.264Z,0.88
2023-02-07T05:16:55.112Z,0.74
2023-02-07T05:21:58.914Z,0.67
2023-02-07T05:27:04.083Z,0.68
2023-02-07T05:32:25.405Z,0.58
2023-02-07T05:37:29.237Z,0.48
2023-02-07T05:42:34.735Z,0.47
2023-02-07T05:47:38.526Z,0.45
2023-02-07T05:52:42.302Z,0.36
2023-02-07T05:57:47.520Z,0.33
2023-02-07T06:02:51.401Z,0.14
2023-02-07T06:07:55.234Z,0.09
2023-02-07T06:13:00.486Z,0.10
2023-02-07T06:18:04.290Z,0.12
2023-02-07T06:23:08.119Z,0.14
2023-02-07T06:28:13.487Z,0.15
2023-02-07T06:33:17.274Z,0.15
2023-02-07T06:38:21.132Z,0.13
2023-02-07T06:43:26.574Z,0.15
2023-02-07T06:48:30.418Z,0.13
2023-02-07T06:53:34.242Z,0.03
2023-02-07T06:58:39.366Z,0.13
2023-02-07T07:03:43.240Z,0.06
2023-02-07T07:08:46.985Z,0.04
2023-02-07T07:13:52.190Z,0.07
2023-02-07T07:18:56.008Z,0.00
2023-02-07T07:24:00.105Z,-0.05
2023-02-07T07:29:05.706Z,-0.03
2023-02-07T07:34:09.560Z,-0.15
2023-02-07T07:39:14.621Z,-0.22
2023-02-07T07:44:19.883Z,-0.24
2023-02-07T07:49:23.665Z,-0.11
2023-02-07T07:54:27.584Z,-0.11
2023-02-07T07:59:32.661Z,-0.11
2023-02-07T08:04:38.635Z,-0.13
2023-02-07T08:09:42.368Z,-0.21
2023-02-07T08:14:47.466Z,-0.23
2023-02-07T08:19:51.251Z,-0.20
2023-02-07T08:24:55.056Z,-0.12
2023-02-07T08:30:00.170Z,-0.08
2023-02-07T08:35:04.060Z,0.02
2023-02-07T08:40:09.264Z,0.03
2023-02-07T08:45:16.076Z,0.06
2023-02-07T08:50:20.661Z,-0.10
2023-02-07T08:55:24.717Z,-0.02
2023-02-07T09:00:29.846Z,0.09
2023-02-07T09:05:34.236Z,0.12
2023-02-07T09:10:38.588Z,0.06
2023-02-07T09:15:44.008Z,0.18
2023-02-07T09:20:47.781Z,0.34
2023-02-07T09:25:54.219Z,0.39
2023-02-07T09:30:59.543Z,0.63
2023-02-07T09:36:04.212Z,0.81
2023-02-07T09:41:22.219Z,0.98
2023-02-07T09:46:35.790Z,1.17
2023-02-07T09:51:41.057Z,1.34
2023-02-07T09:56:46.466Z,1.53
2023-02-07T10:01:55.074Z,1.69
2023-02-07T10:07:01.132Z,1.90
2023-02-07T10:12:10.910Z,1.99
2023-02-07T10:17:34.198Z,2.13
2023-02-07T10:22:46.374Z,2.37
2023-02-07T10:28:10.406Z,2.55
2023-02-07T10:33:18.097Z,2.74
2023-02-07T10:38:30.855Z,2.98
2023-02-07T10:43:36.005Z,3.14
2023-02-07T10:48:41.453Z,3.43
2023-02-07T10:53:54.815Z,3.71
2023-02-07T10:59:00.472Z,3.98
2023-02-07T11:04:24.139Z,4.27
2023-02-07T11:09:28.077Z,4.59
2023-02-07T11:14:31.853Z,5.18
2023-02-07T11:19:37.602Z,5.46
2023-02-07T11:24:41.983Z,5.95
2023-02-07T11:29:50.899Z,6.38
2023-02-07T11:34:58.563Z,7.23
2023-02-07T11:40:23.270Z,8.49
2023-02-07T11:45:28.246Z,9.82
2023-02-07T11:50:39.327Z,10.62
2023-02-07T11:55:44.667Z,11.80
2023-02-07T12:00:51.177Z,12.61
2023-02-07T12:06:02.960Z,13.61
2023-02-07T12:11:12.785Z,14.13
2023-02-07T12:16:21.722Z,14.27
2023-02-07T12:21:32.064Z,14.25
2023-02-07T12:26:44.376Z,14.36
2023-02-07T12:31:55.759Z,14.21
2023-02-07T12:37:06.353Z,14.33
2023-02-07T12:42:24.711Z,14.84
2023-02-07T12:47:42.722Z,14.60
2023-02-07T12:52:57.566Z,15.17
2023-02-07T12:58:17.791Z,15.11
2023-02-07T13:03:35.414Z,15.80
2023-02-07T13:08:51.630Z,15.84
2023-02-07T13:14:06.329Z,16.35
2023-02-07T13:19:20.656Z,16.52
2023-02-07T13:24:30.171Z,16.76
2023-02-07T13:29:37.244Z,17.15
2023-02-07T13:34:46.335Z,17.56
2023-02-07T13:39:59.253Z,17.66
2023-02-07T13:45:07.868Z,17.81
2023-02-07T13:50:32.459Z,17.79
2023-02-07T13:55:39.606Z,17.68
2023-02-07T14:01:08.918Z,17.91
2023-02-07T14:06:18.399Z,16.85
2023-02-07T14:11:36.331Z,16.59
2023-02-07T14:16:50.538Z,15.70
2023-02-07T14:22:15.085Z,16.08
2023-02-07T14:27:33.841Z,16.52
2023-02-07T14:32:43.947Z,16.97
2023-02-07T14:37:53.566Z,17.50
2023-02-07T14:43:02.892Z,17.36
2023-02-07T14:48:09.212Z,15.86
2023-02-07T14:53:15.823Z,15.35
2023-02-07T14:58:28.092Z,14.46
2023-02-07T15:03:34.884Z,14.64
2023-02-07T15:08:38.891Z,14.67
2023-02-07T15:13:47.587Z,15.16
2023-02-07T15:18:58.442Z,15.67
2023-02-07T15:24:04.749Z,15.17
2023-02-07T15:29:21.928Z,14.10
2023-02-07T15:34:31.753Z,12.96
2023-02-07T15:39:35.693Z,12.00
2023-02-07T15:44:50.665Z,11.48
2023-02-07T15:50:00.323Z,10.77
2023-02-07T15:55:07.027Z,10.30
2023-02-07T16:00:20.231Z,9.93
2023-02-07T16:05:27.925Z,9.48
2023-02-07T16:10:40.269Z,9.19
2023-02-07T16:15:57.081Z,8.91
2023-02-07T16:21:01.193Z,8.67
2023-02-07T16:26:05.681Z,8.48
2023-02-07T16:31:11.072Z,8.30
2023-02-07T16:36:16.917Z,8.17
2023-02-07T16:41:28.557Z,8.01
2023-02-07T16:46:34.383Z,7.85
2023-02-07T16:51:38.367Z,7.69
2023-02-07T16:56:52.429Z,7.40
2023-02-07T17:01:57.905Z,7.38
2023-02-07T17:07:02.009Z,7.14
2023-02-07T17:12:07.290Z,6.94
2023-02-07T17:17:13.381Z,6.75
2023-02-07T17:22:17.487Z,6.62
2023-02-07T17:27:21.252Z,6.44
2023-02-07T17:32:26.428Z,6.22
2023-02-07T17:37:30.538Z,5.98
2023-02-07T17:42:34.318Z,5.86
2023-02-07T17:47:39.693Z,5.74
2023-02-07T17:52:43.508Z,5.63
2023-02-07T17:57:47.286Z,5.48
2023-02-07T18:02:53.422Z,5.40
2023-02-07T18:07:57.638Z,5.19
2023-02-07T18:13:01.982Z,5.05
2023-02-07T18:18:07.632Z,4.91
2023-02-07T18:23:13.695Z,4.73
2023-02-07T18:28:18.390Z,4.59
2023-02-07T18:33:25.719Z,4.60
2023-02-07T18:38:29.690Z,4.49
2023-02-07T18:43:33.668Z,4.32
2023-02-07T18:48:39.288Z,4.10
2023-02-07T18:53:44.245Z,4.08
2023-02-07T18:58:49.578Z,3.97
2023-02-07T19:03:56.398Z,3.91
2023-02-07T19:09:00.459Z,3.85
2023-02-07T19:14:04.623Z,3.73
2023-02-07T19:19:11.970Z,3.68
2023-02-07T19:24:18.632Z,3.53
2023-02-07T19:29:28.217Z,3.45
2023-02-07T19:34:34.130Z,3.33
2023-02-07T19:39:38.083Z,3.20
2023-02-07T19:44:41.924Z,3.17
2023-02-07T19:49:51.888Z,3.12
2023-02-07T19:54:55.979Z,3.08
2023-02-07T20:00:00.622Z,2.91
2023-02-07T20:05:06.368Z,2.91
2023-02-07T20:10:11.190Z,2.91
2023-02-07T20:15:15.086Z,2.78
2023-02-07T20:20:20.421Z,2.64
2023-02-07T20:25:24.310Z,2.54
2023-02-07T20:30:28.847Z,2.49
2023-02-07T20:35:36.466Z,2.45
2023-02-07T20:40:40.653Z,2.31
2023-02-07T20:45:44.761Z,2.21
2023-02-07T20:50:57.952Z,2.15
2023-02-07T20:56:10.533Z,2.07
2023-02-07T21:01:16.914Z,1.95
2023-02-07T21:06:25.309Z,1.81
2023-02-07T21:11:33.642Z,1.83
2023-02-07T21:16:37.434Z,1.77
2023-02-07T21:21:42.892Z,1.66
2023-02-07T21:26:48.720Z,1.69
2023-02-07T21:31:53.364Z,1.60
2023-02-07T21:36:58.841Z,1.59
2023-02-07T21:42:02.654Z,1.51
2023-02-07T21:47:06.460Z,1.45
2023-02-07T21:52:11.991Z,1.48
2023-02-07T21:57:15.806Z,1.49
2023-02-07T22:02:19.637Z,1.47
2023-02-07T22:07:24.950Z,1.49
2023-02-07T22:12:29.002Z,1.43
2023-02-07T22:17:32.943Z,1.40
2023-02-07T22:22:38.086Z,1.15
2023-02-07T22:27:41.843Z,1.11
2023-02-07T22:32:47.732Z,1.08
2023-02-07T22:37:52.820Z,1.02
2023-02-07T22:42:56.603Z,0.95
2023-02-07T22:48:00.327Z,0.71
2023-02-07T22:53:05.478Z,0.75
2023-02-07T22:58:09.531Z,0.71
2023-02-07T23:03:13.356Z,0.68
2023-02-07T23:08:19.219Z,0.69
2023-02-07T23:13:23.134Z,0.62
2023-02-07T23:18:26.950Z,0.49
2023-02-07T23:23:32.040Z,0.47
2023-02-07T23:28:37.157Z,0.48
2023-02-07T23:33:43.910Z,0.42
2023-02-07T23:38:50.117Z,0.31
2023-02-07T23:43:54.152Z,0.27
2023-02-07T23:48:57.969Z,0.19
2023-02-07T23:54:03.472Z,0.22
2023-02-07T23:59:07.550Z,0.22
